createdAt,value
2022-07-29T00:01:02.279Z,101836.03
2022-07-29T00:03:28.749Z,101832.63
2022-07-29T00:05:55.247Z,101841.31
2022-07-29T00:08:21.748Z,101834.88
2022-07-29T00:10:48.537Z,101822.03
2022-07-29T00:13:15.215Z,101823.53
2022-07-29T00:15:41.796Z,101823.91
2022-07-29T00:18:08.391Z,101822.03
2022-07-29T00:20:34.926Z,101820.13
2022-07-29T00:23:01.497Z,101820.88
2022-07-29T00:25:28.068Z,101814.06
2022-07-29T00:27:54.572Z,101810.66
2022-07-29T00:30:21.189Z,101813.31
2022-07-29T00:32:47.679Z,101813.31
2022-07-29T00:35:32.578Z,101799.31
2022-07-29T00:38:00.177Z,101799.31
2022-07-29T00:40:28.660Z,101797.78
2022-07-29T00:42:55.232Z,101794.41
2022-07-29T00:45:23.175Z,101790.25
2022-07-29T00:47:50.116Z,101789.88
2022-07-29T00:50:17.104Z,101784.97
2022-07-29T00:52:43.987Z,101784.97
2022-07-29T00:55:14.629Z,101782.31
2022-07-29T00:57:42.464Z,101777.00
2022-07-29T01:00:12.060Z,101781.56
2022-07-29T01:02:38.662Z,101783.44
2022-07-29T01:05:06.794Z,101770.97
2022-07-29T01:07:37.960Z,101768.69
2022-07-29T01:10:05.722Z,101773.25
2022-07-29T01:12:34.511Z,101770.97
2022-07-29T01:15:07.504Z,101785.34
2022-07-29T01:17:52.501Z,101774.75
2022-07-29T01:20:38.749Z,101774.75
2022-07-29T01:23:08.043Z,101774.00
2022-07-29T01:25:43.501Z,101769.84
2022-07-29T01:28:29.586Z,101758.88
2022-07-29T01:30:57.432Z,101764.16
2022-07-29T01:33:44.724Z,101771.34
2022-07-29T01:36:15.635Z,101772.50
2022-07-29T01:38:46.446Z,101780.44
2022-07-29T01:41:18.497Z,101779.69
2022-07-29T01:43:51.358Z,101780.09
2022-07-29T01:46:24.044Z,101775.13
2022-07-29T01:48:56.323Z,101786.16
2022-07-29T01:51:29.192Z,101790.28
2022-07-29T01:54:14.231Z,101786.16
2022-07-29T01:56:43.437Z,101784.97
2022-07-29T01:59:11.462Z,101782.34
2022-07-29T02:01:41.136Z,101783.09
2022-07-29T02:04:10.962Z,101787.63
2022-07-29T02:06:41.612Z,101776.69
2022-07-29T02:09:09.471Z,101777.06
2022-07-29T02:11:38.619Z,101774.03
2022-07-29T02:14:06.702Z,101774.44
2022-07-29T02:16:41.627Z,101776.34
2022-07-29T02:19:09.761Z,101766.47
2022-07-29T02:21:36.984Z,101771.78
2022-07-29T02:24:05.071Z,101771.41
2022-07-29T02:26:33.292Z,101765.75
2022-07-29T02:29:01.150Z,101764.25
2022-07-29T02:31:33.512Z,101768.00
2022-07-29T02:34:04.393Z,101763.09
2022-07-29T02:36:32.918Z,101762.72
2022-07-29T02:39:01.808Z,101757.44
2022-07-29T02:41:48.111Z,101753.66
2022-07-29T02:44:18.063Z,101761.59
2022-07-29T02:46:51.161Z,101754.78
2022-07-29T02:49:32.997Z,101753.66
2022-07-29T02:52:02.588Z,101747.59
2022-07-29T02:54:38.798Z,101750.25
2022-07-29T02:57:11.955Z,101756.69
2022-07-29T02:59:41.950Z,101754.41
2022-07-29T03:02:10.810Z,101758.56
2022-07-29T03:04:40.897Z,101750.63
2022-07-29T03:07:07.969Z,101746.09
2022-07-29T03:09:35.162Z,101747.19
2022-07-29T03:12:02.686Z,101749.84
2022-07-29T03:14:29.490Z,101747.59
2022-07-29T03:16:56.514Z,101734.75
2022-07-29T03:19:23.274Z,101731.72
2022-07-29T03:21:50.235Z,101730.97
2022-07-29T03:24:37.698Z,101731.28
2022-07-29T03:27:05.127Z,101735.88
2022-07-29T03:29:33.831Z,101733.22
2022-07-29T03:32:03.383Z,101727.94
2022-07-29T03:34:30.876Z,101730.56
2022-07-29T03:36:57.417Z,101722.25
2022-07-29T03:39:28.068Z,101724.91
2022-07-29T03:41:57.924Z,101721.13
2022-07-29T03:44:26.806Z,101723.78
2022-07-29T03:46:56.572Z,101714.69
2022-07-29T03:49:24.930Z,101716.63
2022-07-29T03:51:51.563Z,101718.09
2022-07-29T03:54:18.522Z,101718.09
2022-07-29T03:56:48.578Z,101719.59
2022-07-29T03:59:16.757Z,101723.41
2022-07-29T04:01:44.203Z,101724.56
2022-07-29T04:04:11.306Z,101733.22
2022-07-29T04:06:42.138Z,101731.00
2022-07-29T04:09:09.793Z,101721.53
2022-07-29T04:11:57.106Z,101724.56
2022-07-29T04:14:25.338Z,101718.13
2022-07-29T04:16:51.866Z,101714.72
2022-07-29T04:19:18.319Z,101713.97
2022-07-29T04:21:46.205Z,101714.72
2022-07-29T04:24:12.822Z,101715.91
2022-07-29T04:26:39.559Z,101712.50
2022-07-29T04:29:06.121Z,101707.97
2022-07-29T04:31:32.693Z,101706.44
2022-07-29T04:33:59.185Z,101711.34
2022-07-29T04:36:28.857Z,101704.94
2022-07-29T04:38:56.262Z,101710.59
2022-07-29T04:41:22.733Z,101709.09
2022-07-29T04:43:49.937Z,101717.78
2022-07-29T04:46:16.892Z,101723.84
2022-07-29T04:48:43.503Z,101734.44
2022-07-29T04:51:10.059Z,101733.28
2022-07-29T04:53:36.541Z,101721.91
2022-07-29T04:56:03.539Z,101724.56
2022-07-29T04:58:30.027Z,101717.00
2022-07-29T05:00:56.557Z,101721.91
2022-07-29T05:03:23.193Z,101721.19
2022-07-29T05:05:49.666Z,101722.34
2022-07-29T05:08:16.136Z,101720.78
2022-07-29T05:10:42.636Z,101735.88
2022-07-29T05:13:09.188Z,101740.00
2022-07-29T05:15:36.876Z,101746.38
2022-07-29T05:18:04.585Z,101755.41
2022-07-29T05:20:31.668Z,101756.16
2022-07-29T05:22:59.739Z,101747.47
2022-07-29T05:25:43.069Z,101743.28
2022-07-29T05:28:11.644Z,101748.94
2022-07-29T05:30:38.206Z,101747.78
2022-07-29T05:33:04.726Z,101752.31
2022-07-29T05:35:31.249Z,101751.97
2022-07-29T05:37:57.763Z,101752.31
2022-07-29T05:40:24.270Z,101759.16
2022-07-29T05:42:50.746Z,101754.97
2022-07-29T05:45:17.233Z,101754.22
2022-07-29T05:47:43.733Z,101752.00
2022-07-29T05:50:10.417Z,101754.28
2022-07-29T05:52:36.892Z,101759.59
2022-07-29T05:55:05.341Z,101759.59
2022-07-29T05:57:32.423Z,101764.13
2022-07-29T05:59:58.882Z,101764.88
2022-07-29T06:02:25.367Z,101773.19
2022-07-29T06:04:51.947Z,101771.72
2022-07-29T06:07:18.580Z,101775.16
2022-07-29T06:09:45.274Z,101784.59
2022-07-29T06:12:11.755Z,101790.66
2022-07-29T06:14:39.242Z,101791.41
2022-07-29T06:17:06.683Z,101795.94
2022-07-29T06:19:36.239Z,101806.16
2022-07-29T06:22:03.009Z,101805.03
2022-07-29T06:24:29.499Z,101795.94
2022-07-29T06:26:56.177Z,101791.06
2022-07-29T06:29:22.645Z,101788.75
2022-07-29T06:31:49.222Z,101789.16
2022-07-29T06:34:16.612Z,101790.66
2022-07-29T06:36:44.272Z,101793.25
2022-07-29T06:39:12.290Z,101790.56
2022-07-29T06:41:38.980Z,101793.22
2022-07-29T06:44:05.743Z,101800.38
2022-07-29T06:46:33.175Z,101796.16
2022-07-29T06:49:00.008Z,101793.91
2022-07-29T06:51:26.619Z,101788.94
2022-07-29T06:54:01.653Z,101804.84
2022-07-29T06:56:32.580Z,101800.25
2022-07-29T06:59:06.705Z,101798.69
2022-07-29T07:01:33.295Z,101804.00
2022-07-29T07:03:59.865Z,101804.41
2022-07-29T07:06:26.495Z,101805.16
2022-07-29T07:08:53.033Z,101812.31
2022-07-29T07:11:19.586Z,101805.50
2022-07-29T07:13:46.245Z,101802.50
2022-07-29T07:16:13.477Z,101811.59
2022-07-29T07:18:40.018Z,101812.72
2022-07-29T07:21:06.761Z,101805.94
2022-07-29T07:23:33.284Z,101811.97
2022-07-29T07:25:59.810Z,101808.56
2022-07-29T07:28:26.272Z,101798.72
2022-07-29T07:30:53.015Z,101798.25
2022-07-29T07:33:19.868Z,101795.97
2022-07-29T07:35:46.537Z,101795.13
2022-07-29T07:38:13.569Z,101798.06
2022-07-29T07:40:40.152Z,101797.31
2022-07-29T07:43:06.664Z,101791.69
2022-07-29T07:45:38.098Z,101779.50
2022-07-29T07:48:05.438Z,101785.13
2022-07-29T07:50:31.991Z,101780.22
2022-07-29T07:52:58.990Z,101785.81
2022-07-29T07:55:26.880Z,101793.72
2022-07-29T07:57:54.349Z,101790.38
2022-07-29T08:00:23.045Z,101788.81
2022-07-29T08:02:51.147Z,101791.09
2022-07-29T08:05:18.416Z,101798.31
2022-07-29T08:07:46.826Z,101793.72
2022-07-29T08:10:37.662Z,101793.72
2022-07-29T08:13:08.734Z,101783.81
2022-07-29T08:15:35.977Z,101775.09
2022-07-29T08:18:08.028Z,101776.59
2022-07-29T08:20:36.551Z,101769.66
2022-07-29T08:23:04.029Z,101770.41
2022-07-29T08:25:30.633Z,101771.09
2022-07-29T08:27:58.240Z,101764.63
2022-07-29T08:30:24.795Z,101767.63
2022-07-29T08:32:55.047Z,101774.00
2022-07-29T08:35:23.601Z,101782.31
2022-07-29T08:37:50.156Z,101774.81
2022-07-29T08:40:16.852Z,101781.22
2022-07-29T08:42:43.598Z,101789.19
2022-07-29T08:45:10.751Z,101791.13
2022-07-29T08:47:40.806Z,101794.50
2022-07-29T08:50:11.182Z,101798.31
2022-07-29T08:52:41.984Z,101799.81
2022-07-29T08:55:10.698Z,101804.00
2022-07-29T08:57:39.953Z,101802.88
2022-07-29T09:00:19.603Z,101796.44
2022-07-29T09:02:52.641Z,101802.13
2022-07-29T09:05:19.925Z,101794.16
2022-07-29T09:07:49.028Z,101796.41
2022-07-29T09:10:15.679Z,101796.41
2022-07-29T09:12:42.302Z,101798.69
2022-07-29T09:15:09.222Z,101807.34
2022-07-29T09:17:43.625Z,101799.69
2022-07-29T09:20:21.906Z,101797.03
2022-07-29T09:22:50.308Z,101800.00
2022-07-29T09:25:40.338Z,101801.09
2022-07-29T09:28:11.706Z,101795.75
2022-07-29T09:30:59.271Z,101797.28
2022-07-29T09:33:33.974Z,101793.81
2022-07-29T09:36:08.497Z,101791.50
2022-07-29T09:38:38.547Z,101783.53
2022-07-29T09:41:06.899Z,101789.53
2022-07-29T09:43:34.463Z,101790.28
2022-07-29T09:46:14.622Z,101782.75
2022-07-29T09:48:41.619Z,101782.41
2022-07-29T09:51:28.300Z,101786.59
2022-07-29T09:54:24.012Z,101783.59
2022-07-29T09:56:51.151Z,101783.25
2022-07-29T09:59:17.976Z,101789.69
2022-07-29T10:01:44.762Z,101786.28
2022-07-29T10:04:11.287Z,101778.31
2022-07-29T10:07:03.569Z,101780.59
2022-07-29T10:09:31.437Z,101782.03
2022-07-29T10:12:14.608Z,101780.09
2022-07-29T10:14:42.293Z,101780.09
2022-07-29T10:17:10.293Z,101781.22
2022-07-29T10:19:38.944Z,101776.34
2022-07-29T10:22:09.856Z,101776.72
2022-07-29T10:24:38.461Z,101782.47
2022-07-29T10:27:09.069Z,101790.44
2022-07-29T10:29:36.780Z,101781.38
2022-07-29T10:32:23.008Z,101779.47
2022-07-29T10:35:09.559Z,101780.28
2022-07-29T10:38:03.953Z,101773.47
2022-07-29T10:41:06.848Z,101779.19
2022-07-29T10:43:39.113Z,101778.44
2022-07-29T10:46:09.917Z,101772.78
2022-07-29T10:49:06.349Z,101774.63
2022-07-29T10:51:59.896Z,101773.13
2022-07-29T10:54:36.236Z,101778.06
2022-07-29T10:57:54.540Z,101778.78
2022-07-29T11:00:29.589Z,101776.56
2022-07-29T11:02:57.622Z,101781.13
2022-07-29T11:05:39.965Z,101777.72
2022-07-29T11:08:20.377Z,101783.03
2022-07-29T11:10:48.655Z,101784.91
2022-07-29T11:13:44.282Z,101786.06
2022-07-29T11:16:11.331Z,101785.16
2022-07-29T11:19:13.199Z,101784.84
2022-07-29T11:22:05.166Z,101782.53
2022-07-29T11:24:32.057Z,101778.72
2022-07-29T11:27:10.970Z,101778.72
2022-07-29T11:29:43.090Z,101778.19
2022-07-29T11:32:15.738Z,101782.19
2022-07-29T11:34:45.245Z,101770.31
2022-07-29T11:37:13.615Z,101781.00
2022-07-29T11:39:44.377Z,101770.91
2022-07-29T11:42:30.483Z,101775.97
2022-07-29T11:45:04.384Z,101772.69
2022-07-29T11:47:51.204Z,101774.59
2022-07-29T11:50:37.626Z,101778.28
2022-07-29T11:53:16.264Z,101776.31
2022-07-29T11:55:51.169Z,101769.47
2022-07-29T12:01:14.582Z,101779.75
2022-07-29T12:03:41.120Z,101775.19
2022-07-29T12:06:17.594Z,101768.31
2022-07-29T12:07:03.568Z,101783.50
2022-07-29T12:08:45.619Z,101767.56
2022-07-29T12:11:23.376Z,101768.72
2022-07-29T12:13:53.756Z,101768.72
2022-07-29T12:16:26.149Z,101777.84
2022-07-29T12:19:00.360Z,101791.16
2022-07-29T12:21:28.608Z,101780.59
2022-07-29T12:23:56.003Z,101778.38
2022-07-29T12:26:28.643Z,101777.28
2022-07-29T12:28:55.608Z,101789.47
2022-07-29T12:31:42.373Z,101782.66
2022-07-29T12:34:10.278Z,101780.75
2022-07-29T12:36:37.435Z,101783.41
2022-07-29T12:39:04.877Z,101789.13
2022-07-29T12:41:32.455Z,101785.31
2022-07-29T12:43:59.108Z,101781.81
2022-07-29T12:46:25.722Z,101780.00
2022-07-29T12:48:57.700Z,101786.88
2022-07-29T12:51:35.673Z,101772.13
2022-07-29T12:54:05.223Z,101774.78
2022-07-29T12:56:47.062Z,101770.56
2022-07-29T12:59:21.612Z,101765.66
2022-07-29T13:01:51.115Z,101768.31
2022-07-29T13:04:34.333Z,101766.41
2022-07-29T13:07:08.325Z,101761.50
2022-07-29T13:09:44.141Z,101759.19
2022-07-29T13:12:13.388Z,101758.41
2022-07-29T13:14:45.682Z,101765.22
2022-07-29T13:17:21.750Z,101760.25
2022-07-29T13:20:15.182Z,101763.59
2022-07-29T13:22:43.354Z,101766.25
2022-07-29T13:25:10.637Z,101760.94
2022-07-29T13:27:39.385Z,101773.47
2022-07-29T13:30:08.269Z,101765.16
2022-07-29T13:32:35.852Z,101761.00
2022-07-29T13:35:05.751Z,101756.84
2022-07-29T13:37:35.048Z,101765.56
2022-07-29T13:40:05.617Z,101760.25
2022-07-29T13:42:33.032Z,101758.69
2022-07-29T13:45:00.110Z,101764.75
2022-07-29T13:47:32.359Z,101759.03
2022-07-29T13:50:03.538Z,101758.28
2022-07-29T13:52:31.880Z,101759.81
2022-07-29T13:54:58.514Z,101751.03
2022-07-29T13:57:25.068Z,101755.22
2022-07-29T13:59:54.344Z,101746.88
2022-07-29T14:02:21.596Z,101762.06
2022-07-29T14:04:52.841Z,101760.94
2022-07-29T14:07:19.401Z,101752.63
2022-07-29T14:09:45.933Z,101755.69
2022-07-29T14:12:12.883Z,101752.28
2022-07-29T14:14:39.646Z,101753.78
2022-07-29T14:17:07.557Z,101752.28
2022-07-29T14:19:36.711Z,101757.94
2022-07-29T14:22:05.432Z,101751.13
2022-07-29T14:24:36.973Z,101754.19
2022-07-29T14:27:04.636Z,101752.63
2022-07-29T14:29:37.831Z,101756.38
2022-07-29T14:32:09.955Z,101748.78
2022-07-29T14:34:37.549Z,101760.16
2022-07-29T14:37:06.780Z,101763.22
2022-07-29T14:39:36.918Z,101758.66
2022-07-29T14:42:06.114Z,101764.66
2022-07-29T14:44:32.598Z,101758.19
2022-07-29T14:47:00.682Z,101751.66
2022-07-29T14:49:27.985Z,101759.13
2022-07-29T14:51:54.548Z,101764.78
2022-07-29T14:54:21.113Z,101752.91
2022-07-29T14:56:47.803Z,101749.31
2022-07-29T14:59:14.668Z,101762.34
2022-07-29T15:01:41.242Z,101754.50
2022-07-29T15:04:07.816Z,101770.94
2022-07-29T15:06:35.040Z,101776.72
2022-07-29T15:09:01.583Z,101761.59
2022-07-29T15:11:28.059Z,101768.69
2022-07-29T15:13:54.552Z,101768.91
2022-07-29T15:16:21.827Z,101771.63
2022-07-29T15:18:48.323Z,101770.94
2022-07-29T15:21:16.053Z,101768.38
2022-07-29T15:23:42.538Z,101772.22
2022-07-29T15:26:09.027Z,101769.31
2022-07-29T15:28:35.580Z,101773.94
2022-07-29T15:31:02.140Z,101767.53
2022-07-29T15:33:28.640Z,101771.03
2022-07-29T15:35:56.941Z,101774.84
2022-07-29T15:38:28.587Z,101770.72
2022-07-29T15:40:55.715Z,101772.28
2022-07-29T15:43:22.325Z,101768.13
2022-07-29T15:46:07.446Z,101766.53
2022-07-29T15:48:34.051Z,101770.03
2022-07-29T15:51:01.078Z,101767.44
2022-07-29T15:53:27.624Z,101762.53
2022-07-29T15:55:54.126Z,101770.56
2022-07-29T15:58:20.620Z,101768.31
2022-07-29T16:00:47.900Z,101767.56
2022-07-29T16:03:14.881Z,101753.19
2022-07-29T16:05:41.372Z,101763.06
2022-07-29T16:08:08.396Z,101761.97
2022-07-29T16:10:34.925Z,101765.00
2022-07-29T16:13:01.767Z,101766.16
2022-07-29T16:15:28.244Z,101762.44
2022-07-29T16:17:55.013Z,101756.34
2022-07-29T16:20:22.427Z,101759.84
2022-07-29T16:22:49.196Z,101757.19
2022-07-29T16:25:15.700Z,101762.53
2022-07-29T16:27:42.172Z,101758.03
2022-07-29T16:30:10.003Z,101759.56
2022-07-29T16:32:36.551Z,101758.09
2022-07-29T16:35:05.183Z,101755.97
2022-07-29T16:37:35.420Z,101753.72
2022-07-29T16:40:02.564Z,101751.72
2022-07-29T16:42:45.474Z,101758.97
2022-07-29T16:45:13.317Z,101751.41
2022-07-29T16:47:39.773Z,101757.41
2022-07-29T16:50:06.840Z,101758.50
2022-07-29T16:52:33.724Z,101752.44
2022-07-29T16:55:00.251Z,101750.13
2022-07-29T16:57:27.064Z,101758.09
2022-07-29T16:59:53.567Z,101761.84
2022-07-29T17:02:20.152Z,101769.06
2022-07-29T17:04:46.784Z,101766.47
2022-07-29T17:07:13.377Z,101769.34
2022-07-29T17:09:40.441Z,101762.09
2022-07-29T17:12:07.170Z,101775.03
2022-07-29T17:14:33.650Z,101764.75
2022-07-29T17:17:02.415Z,101757.94
2022-07-29T17:19:35.256Z,101766.31
2022-07-29T17:22:15.536Z,101775.50
2022-07-29T17:24:45.447Z,101767.16
2022-07-29T17:27:12.339Z,101774.38
2022-07-29T17:29:39.387Z,101764.94
2022-07-29T17:32:07.670Z,101766.13
2022-07-29T17:34:35.955Z,101767.34
2022-07-29T17:37:02.817Z,101765.50
2022-07-29T17:39:29.334Z,101776.13
2022-07-29T17:41:55.937Z,101781.00
2022-07-29T17:44:22.402Z,101785.59
2022-07-29T17:46:49.028Z,101779.94
2022-07-29T17:49:15.615Z,101791.31
2022-07-29T17:51:42.155Z,101786.75
2022-07-29T17:54:08.617Z,101796.63
2022-07-29T17:56:35.138Z,101778.81
2022-07-29T17:59:06.442Z,101780.72
2022-07-29T18:01:33.861Z,101787.19
2022-07-29T18:04:00.520Z,101786.44
2022-07-29T18:06:27.031Z,101787.94
2022-07-29T18:08:53.943Z,101777.31
2022-07-29T18:11:20.436Z,101780.69
2022-07-29T18:13:56.881Z,101781.09
2022-07-29T18:16:23.431Z,101774.25
2022-07-29T18:18:51.005Z,101778.06
2022-07-29T18:21:17.469Z,101774.25
2022-07-29T18:24:04.105Z,101795.88
2022-07-29T18:26:30.684Z,101789.44
2022-07-29T18:28:57.238Z,101791.72
2022-07-29T18:31:23.767Z,101787.53
2022-07-29T18:33:50.413Z,101797.03
2022-07-29T18:36:18.014Z,101794.75
2022-07-29T18:38:44.485Z,101798.56
2022-07-29T18:41:11.441Z,101805.78
2022-07-29T18:43:38.081Z,101798.97
2022-07-29T18:46:05.938Z,101800.13
2022-07-29T18:48:34.097Z,101796.38
2022-07-29T18:51:00.594Z,101797.13
2022-07-29T18:53:27.061Z,101805.84
2022-07-29T18:55:57.331Z,101801.69
2022-07-29T18:58:26.426Z,101808.16
2022-07-29T19:00:53.029Z,101810.06
2022-07-29T19:03:19.497Z,101815.38
2022-07-29T19:05:46.016Z,101815.38
2022-07-29T19:08:12.543Z,101820.69
2022-07-29T19:10:39.014Z,101818.44
2022-07-29T19:13:06.148Z,101832.47
2022-07-29T19:15:32.661Z,101826.78
2022-07-29T19:18:01.159Z,101835.16
2022-07-29T19:20:28.372Z,101829.09
2022-07-29T19:22:54.872Z,101828.75
2022-07-29T19:25:23.020Z,101837.88
2022-07-29T19:27:49.523Z,101840.53
2022-07-29T19:30:16.065Z,101840.19
2022-07-29T19:32:42.609Z,101844.78
2022-07-29T19:35:24.576Z,101847.50
2022-07-29T19:37:51.896Z,101850.53
2022-07-29T19:40:18.641Z,101851.69
2022-07-29T19:42:45.672Z,101855.91
2022-07-29T19:45:13.506Z,101853.25
2022-07-29T19:47:40.248Z,101862.00
2022-07-29T19:50:07.467Z,101862.38
2022-07-29T19:52:33.954Z,101868.50
2022-07-29T19:55:06.846Z,101865.09
2022-07-29T19:57:40.590Z,101877.28
2022-07-29T20:00:11.253Z,101881.84
2022-07-29T20:02:38.983Z,101883.38
2022-07-29T20:05:06.229Z,101881.09
2022-07-29T20:07:32.699Z,101886.03
2022-07-29T20:09:59.378Z,101888.69
2022-07-29T20:12:26.023Z,101886.47
2022-07-29T20:14:52.520Z,101882.28
2022-07-29T20:17:19.535Z,101887.28
2022-07-29T20:19:46.468Z,101892.56
2022-07-29T20:22:14.171Z,101884.25
2022-07-29T20:24:47.856Z,101889.94
2022-07-29T20:27:14.364Z,101888.44
2022-07-29T20:29:41.178Z,101900.94
2022-07-29T20:32:07.857Z,101894.13
2022-07-29T20:34:34.401Z,101901.75
2022-07-29T20:37:02.654Z,101899.84
2022-07-29T20:39:29.562Z,101899.91
2022-07-29T20:41:56.341Z,101908.63
2022-07-29T20:44:24.272Z,101896.88
2022-07-29T20:46:50.827Z,101897.63
2022-07-29T20:49:17.441Z,101896.88
2022-07-29T20:51:44.248Z,101902.56
2022-07-29T20:54:11.225Z,101901.06
2022-07-29T20:56:38.204Z,101900.31
2022-07-29T20:59:04.745Z,101899.59
2022-07-29T21:01:31.249Z,101895.09
2022-07-29T21:03:57.798Z,101895.47
2022-07-29T21:06:24.292Z,101902.31
2022-07-29T21:08:50.772Z,101904.22
2022-07-29T21:11:17.687Z,101900.41
2022-07-29T21:14:04.241Z,101901.94
2022-07-29T21:16:33.367Z,101909.19
2022-07-29T21:18:59.839Z,101915.63
2022-07-29T21:21:26.946Z,101914.81
2022-07-29T21:23:53.443Z,101919.38
2022-07-29T21:26:19.904Z,101910.28
2022-07-29T21:28:46.433Z,101919.38
2022-07-29T21:31:17.166Z,101910.31
2022-07-29T21:33:45.950Z,101913.38
2022-07-29T21:36:46.559Z,101905.81
2022-07-29T21:39:06.740Z,101911.13
2022-07-29T21:41:34.319Z,101916.38
2022-07-29T21:44:01.385Z,101915.63
2022-07-29T21:46:28.102Z,101908.78
2022-07-29T21:48:54.755Z,101902.31
2022-07-29T21:51:21.268Z,101907.63
2022-07-29T21:53:49.016Z,101904.22
2022-07-29T21:56:15.502Z,101906.47
2022-07-29T21:58:44.524Z,101902.66
2022-07-29T22:01:11.114Z,101901.19
2022-07-29T22:03:37.704Z,101895.13
2022-07-29T22:06:04.454Z,101895.88
2022-07-29T22:08:30.953Z,101906.47
2022-07-29T22:10:57.431Z,101903.84
2022-07-29T22:13:23.928Z,101903.47
2022-07-29T22:15:50.460Z,101896.25
2022-07-29T22:18:20.718Z,101895.16
2022-07-29T22:20:48.885Z,101905.78
2022-07-29T22:23:15.373Z,101896.69
2022-07-29T22:25:41.901Z,101905.41
2022-07-29T22:28:08.379Z,101902.41
2022-07-29T22:30:34.907Z,101896.69
2022-07-29T22:33:01.408Z,101896.75
2022-07-29T22:35:27.988Z,101898.66
2022-07-29T22:37:54.464Z,101903.59
2022-07-29T22:40:21.084Z,101898.31
2022-07-29T22:42:47.601Z,101896.00
2022-07-29T22:45:14.177Z,101911.19
2022-07-29T22:47:48.375Z,101909.25
2022-07-29T22:50:15.807Z,101908.13
2022-07-29T22:52:42.338Z,101901.31
2022-07-29T22:55:09.263Z,101900.97
2022-07-29T22:57:35.768Z,101908.16
2022-07-29T23:00:02.505Z,101907.78
2022-07-29T23:02:29.271Z,101915.38
2022-07-29T23:04:56.547Z,101911.56
2022-07-29T23:07:23.561Z,101914.97
2022-07-29T23:09:50.252Z,101913.47
2022-07-29T23:12:16.819Z,101914.59
2022-07-29T23:14:43.981Z,101919.53
2022-07-29T23:17:10.551Z,101915.72
2022-07-29T23:19:37.143Z,101912.72
2022-07-29T23:22:03.673Z,101921.44
2022-07-29T23:24:30.126Z,101921.44
2022-07-29T23:26:56.599Z,101925.97
2022-07-29T23:29:23.118Z,101921.06
2022-07-29T23:31:49.725Z,101926.34
2022-07-29T23:34:16.314Z,101921.06
2022-07-29T23:36:42.843Z,101920.31
2022-07-29T23:39:11.355Z,101915.03
2022-07-29T23:41:38.437Z,101924.09
2022-07-29T23:44:05.165Z,101922.56
2022-07-29T23:46:31.737Z,101923.03
2022-07-29T23:48:58.445Z,101925.69
2022-07-29T23:51:25.025Z,101928.34
2022-07-29T23:53:53.287Z,101921.91
2022-07-29T23:56:21.081Z,101921.91
2022-07-29T23:58:47.595Z,101919.25
